createdAt,value
2023-12-22T00:00:35.468Z,23.73
2023-12-22T00:01:35.557Z,23.72
2023-12-22T00:02:35.614Z,23.72
2023-12-22T00:03:35.748Z,23.72
2023-12-22T00:04:35.765Z,23.72
2023-12-22T00:05:35.866Z,23.72
2023-12-22T00:06:35.935Z,23.72
2023-12-22T00:07:35.978Z,23.72
2023-12-22T00:08:36.076Z,23.71
2023-12-22T00:09:36.153Z,23.72
2023-12-22T00:10:36.245Z,23.72
2023-12-22T00:11:36.259Z,23.73
2023-12-22T00:12:36.332Z,23.72
2023-12-22T00:13:36.766Z,23.72
2023-12-22T00:14:36.485Z,23.72
2023-12-22T00:15:36.535Z,23.72
2023-12-22T00:16:36.722Z,23.72
2023-12-22T00:17:36.666Z,23.73
2023-12-22T00:18:36.825Z,23.72
2023-12-22T00:19:37.074Z,23.73
2023-12-22T00:20:36.927Z,23.72
2023-12-22T00:21:36.953Z,23.72
2023-12-22T00:22:37.087Z,23.72
2023-12-22T00:23:37.220Z,23.72
2023-12-22T00:24:37.159Z,23.73
2023-12-22T00:25:37.294Z,23.73
2023-12-22T00:26:37.317Z,23.72
2023-12-22T00:27:37.320Z,23.73
2023-12-22T00:28:37.502Z,23.72
2023-12-22T00:29:37.495Z,23.72
2023-12-22T00:30:37.605Z,23.72
2023-12-22T00:31:37.690Z,23.72
2023-12-22T00:32:37.738Z,23.72
2023-12-22T00:33:37.910Z,23.72
2023-12-22T00:34:37.862Z,23.72
2023-12-22T00:35:37.894Z,23.72
2023-12-22T00:36:37.962Z,23.72
2023-12-22T00:37:38.045Z,23.71
2023-12-22T00:38:38.124Z,23.71
2023-12-22T00:39:38.128Z,23.72
2023-12-22T00:40:38.292Z,23.71
2023-12-22T00:41:38.286Z,23.71
2023-12-22T00:42:38.360Z,23.70
2023-12-22T00:43:38.439Z,23.71
2023-12-22T00:44:38.497Z,23.70
2023-12-22T00:45:38.590Z,23.70
2023-12-22T00:46:38.740Z,23.71
2023-12-22T00:47:38.720Z,23.70
2023-12-22T00:48:38.783Z,23.70
2023-12-22T00:49:38.853Z,23.70
2023-12-22T00:50:38.924Z,23.70
2023-12-22T00:51:38.984Z,23.70
2023-12-22T00:52:39.065Z,23.70
2023-12-22T00:53:39.254Z,23.70
2023-12-22T00:54:39.189Z,23.69
2023-12-22T00:55:39.273Z,23.69
2023-12-22T00:56:39.324Z,23.69
2023-12-22T00:57:39.381Z,23.69
2023-12-22T00:58:39.776Z,23.69
2023-12-22T00:59:39.535Z,23.68
2023-12-22T01:00:39.643Z,23.68
2023-12-22T01:01:39.767Z,23.68
2023-12-22T01:02:39.692Z,23.68
2023-12-22T01:03:39.813Z,23.68
2023-12-22T01:04:39.882Z,23.68
2023-12-22T01:05:40.009Z,23.68
2023-12-22T01:06:40.031Z,23.67
2023-12-22T01:07:40.790Z,23.68
2023-12-22T01:08:40.233Z,23.68
2023-12-22T01:09:40.125Z,23.68
2023-12-22T01:10:40.227Z,23.68
2023-12-22T01:11:40.222Z,23.68
2023-12-22T01:12:40.324Z,23.68
2023-12-22T01:13:40.414Z,23.68
2023-12-22T01:14:40.432Z,23.68
2023-12-22T01:15:40.524Z,23.68
2023-12-22T01:16:40.644Z,23.68
2023-12-22T01:17:40.714Z,23.68
2023-12-22T01:18:41.297Z,23.68
2023-12-22T01:19:40.859Z,23.68
2023-12-22T01:20:40.882Z,23.67
2023-12-22T01:21:40.937Z,23.67
2023-12-22T01:22:41.102Z,23.67
2023-12-22T01:23:41.111Z,23.68
2023-12-22T01:24:41.187Z,23.66
2023-12-22T01:25:41.330Z,23.67
2023-12-22T01:26:41.285Z,23.66
2023-12-22T01:27:41.367Z,23.67
2023-12-22T01:28:41.531Z,23.66
2023-12-22T01:29:41.717Z,23.65
2023-12-22T01:30:41.578Z,23.66
2023-12-22T01:31:41.708Z,23.66
2023-12-22T01:32:41.698Z,23.66
2023-12-22T01:33:41.751Z,23.65
2023-12-22T01:34:41.846Z,23.65
2023-12-22T01:35:41.867Z,23.65
2023-12-22T01:36:41.910Z,23.64
2023-12-22T01:37:42.002Z,23.64
2023-12-22T01:38:42.040Z,23.64
2023-12-22T01:39:42.076Z,23.64
2023-12-22T01:40:42.137Z,23.64
2023-12-22T01:41:42.175Z,23.63
2023-12-22T01:42:42.267Z,23.64
2023-12-22T01:43:42.300Z,23.63
2023-12-22T01:44:42.321Z,23.63
2023-12-22T01:45:42.368Z,23.63
2023-12-22T01:46:42.421Z,23.63
2023-12-22T01:47:42.459Z,23.63
2023-12-22T01:48:42.578Z,23.63
2023-12-22T01:49:42.790Z,23.63
2023-12-22T01:50:42.573Z,23.63
2023-12-22T01:51:42.594Z,23.64
2023-12-22T01:52:42.689Z,23.64
2023-12-22T01:53:42.678Z,23.63
2023-12-22T01:54:42.654Z,23.64
2023-12-22T01:55:42.728Z,23.63
2023-12-22T01:56:42.736Z,23.64
2023-12-22T01:57:42.797Z,23.63
2023-12-22T01:58:42.802Z,23.64
2023-12-22T01:59:42.832Z,23.64
2023-12-22T02:00:42.873Z,23.63
2023-12-22T02:01:43.043Z,23.63
2023-12-22T02:02:42.959Z,23.63
2023-12-22T02:03:43.073Z,23.63
2023-12-22T02:04:43.147Z,23.63
2023-12-22T02:05:43.195Z,23.63
2023-12-22T02:06:43.145Z,23.62
2023-12-22T02:07:43.307Z,23.62
2023-12-22T02:08:43.229Z,23.62
2023-12-22T02:09:43.324Z,23.62
2023-12-22T02:10:43.419Z,23.62
2023-12-22T02:11:43.380Z,23.62
2023-12-22T02:12:43.439Z,23.62
2023-12-22T02:13:43.461Z,23.63
2023-12-22T02:14:43.745Z,23.63
2023-12-22T02:15:43.550Z,23.63
2023-12-22T02:16:43.603Z,23.62
2023-12-22T02:17:43.661Z,23.63
2023-12-22T02:18:43.736Z,23.63
2023-12-22T02:19:43.792Z,23.63
2023-12-22T02:20:43.729Z,23.63
2023-12-22T02:21:43.769Z,23.63
2023-12-22T02:22:43.843Z,23.62
2023-12-22T02:23:43.859Z,23.63
2023-12-22T02:24:43.919Z,23.63
2023-12-22T02:25:43.988Z,23.63
2023-12-22T02:26:44.003Z,23.63
2023-12-22T02:27:44.762Z,23.63
2023-12-22T02:28:44.174Z,23.63
2023-12-22T02:29:44.260Z,23.63
2023-12-22T02:30:44.206Z,23.63
2023-12-22T02:31:44.412Z,23.62
2023-12-22T02:32:44.438Z,23.63
2023-12-22T02:33:44.373Z,23.62
2023-12-22T02:34:44.540Z,23.63
2023-12-22T02:35:44.457Z,23.63
2023-12-22T02:36:44.567Z,23.63
2023-12-22T02:37:44.592Z,23.63
2023-12-22T02:38:44.659Z,23.63
2023-12-22T02:39:44.806Z,23.63
2023-12-22T02:40:44.773Z,23.62
2023-12-22T02:41:44.752Z,23.63
2023-12-22T02:42:44.773Z,23.63
2023-12-22T02:43:44.886Z,23.63
2023-12-22T02:44:44.875Z,23.63
2023-12-22T02:45:44.888Z,23.62
2023-12-22T02:46:44.969Z,23.62
2023-12-22T02:47:45.027Z,23.62
2023-12-22T02:48:45.024Z,23.63
2023-12-22T02:49:45.282Z,23.63
2023-12-22T02:50:45.064Z,23.63
2023-12-22T02:51:45.080Z,23.63
2023-12-22T02:52:45.166Z,23.62
2023-12-22T02:53:45.151Z,23.63
2023-12-22T02:54:45.210Z,23.63
2023-12-22T02:55:45.377Z,23.63
2023-12-22T02:56:45.248Z,23.62
2023-12-22T02:57:45.251Z,23.62
2023-12-22T02:58:45.320Z,23.62
2023-12-22T02:59:45.328Z,23.62
2023-12-22T03:00:45.346Z,23.62
2023-12-22T03:01:45.387Z,23.63
2023-12-22T03:02:45.345Z,23.62
2023-12-22T03:03:45.469Z,23.62
2023-12-22T03:04:45.446Z,23.62
2023-12-22T03:05:45.459Z,23.62
2023-12-22T03:06:45.486Z,23.62
2023-12-22T03:07:45.543Z,23.61
2023-12-22T03:08:45.563Z,23.61
2023-12-22T03:09:45.739Z,23.61
2023-12-22T03:10:45.635Z,23.61
2023-12-22T03:11:45.624Z,23.60
2023-12-22T03:12:45.633Z,23.61
2023-12-22T03:13:45.737Z,23.61
2023-12-22T03:14:45.716Z,23.61
2023-12-22T03:15:45.745Z,23.61
2023-12-22T03:16:45.783Z,23.61
2023-12-22T03:17:45.864Z,23.60
2023-12-22T03:18:45.885Z,23.60
2023-12-22T03:19:45.908Z,23.59
2023-12-22T03:20:45.864Z,23.59
2023-12-22T03:21:45.907Z,23.59
2023-12-22T03:22:45.950Z,23.58
2023-12-22T03:23:45.978Z,23.59
2023-12-22T03:24:46.040Z,23.58
2023-12-22T03:25:46.040Z,23.59
2023-12-22T03:26:46.030Z,23.58
2023-12-22T03:27:46.219Z,23.58
2023-12-22T03:28:46.080Z,23.58
2023-12-22T03:29:46.099Z,23.58
2023-12-22T03:30:46.107Z,23.57
2023-12-22T03:31:46.084Z,23.58
2023-12-22T03:32:46.112Z,23.58
2023-12-22T03:33:46.117Z,23.58
2023-12-22T03:34:46.348Z,23.57
2023-12-22T03:35:46.137Z,23.58
2023-12-22T03:36:46.154Z,23.58
2023-12-22T03:37:46.376Z,23.58
2023-12-22T03:38:46.767Z,23.58
2023-12-22T03:39:46.236Z,23.58
2023-12-22T03:40:46.216Z,23.58
2023-12-22T03:41:46.252Z,23.58
2023-12-22T03:42:46.267Z,23.58
2023-12-22T03:43:46.327Z,23.59
2023-12-22T03:44:46.279Z,23.58
2023-12-22T03:45:46.273Z,23.59
2023-12-22T03:46:46.352Z,23.58
2023-12-22T03:47:46.574Z,23.58
2023-12-22T03:48:46.372Z,23.59
2023-12-22T03:49:46.396Z,23.59
2023-12-22T03:50:46.393Z,23.59
2023-12-22T03:51:46.381Z,23.60
2023-12-22T03:52:46.476Z,23.59
2023-12-22T03:54:05.105Z,23.59
2023-12-22T03:55:05.089Z,23.59
2023-12-22T03:56:05.137Z,23.60
2023-12-22T03:57:05.071Z,23.60
2023-12-22T03:58:05.097Z,23.59
2023-12-22T03:59:05.110Z,23.59
2023-12-22T04:00:05.108Z,23.60
2023-12-22T04:01:05.112Z,23.60
2023-12-22T04:02:05.162Z,23.60
2023-12-22T04:03:05.180Z,23.60
2023-12-22T04:04:05.133Z,23.60
2023-12-22T04:05:05.183Z,23.60
2023-12-22T04:06:05.121Z,23.60
2023-12-22T04:07:05.093Z,23.59
2023-12-22T04:08:05.175Z,23.60
2023-12-22T04:09:05.136Z,23.60
2023-12-22T04:10:05.157Z,23.60
2023-12-22T04:11:05.103Z,23.60
2023-12-22T04:12:05.116Z,23.60
2023-12-22T04:13:05.133Z,23.60
2023-12-22T04:14:05.105Z,23.59
2023-12-22T04:15:05.111Z,23.60
2023-12-22T04:16:05.164Z,23.60
2023-12-22T04:17:05.139Z,23.60
2023-12-22T04:18:05.220Z,23.59
2023-12-22T04:19:06.142Z,23.59
2023-12-22T04:20:05.149Z,23.60
2023-12-22T04:21:05.133Z,23.60
2023-12-22T04:22:05.119Z,23.60
2023-12-22T04:23:05.155Z,23.60
2023-12-22T04:24:05.159Z,23.60
2023-12-22T04:25:05.151Z,23.60
2023-12-22T04:26:05.157Z,23.60
2023-12-22T04:27:05.164Z,23.60
2023-12-22T04:28:05.165Z,23.60
2023-12-22T04:29:05.177Z,23.60
2023-12-22T04:30:05.215Z,23.61
2023-12-22T04:31:12.419Z,23.58
2023-12-22T04:32:12.400Z,23.59
2023-12-22T04:33:12.487Z,23.59
2023-12-22T04:34:12.459Z,23.59
2023-12-22T04:35:12.438Z,23.60
2023-12-22T04:36:12.444Z,23.60
2023-12-22T04:37:12.462Z,23.59
2023-12-22T04:38:12.448Z,23.60
2023-12-22T04:39:12.468Z,23.59
2023-12-22T04:40:12.444Z,23.60
2023-12-22T04:41:12.417Z,23.60
2023-12-22T04:42:12.456Z,23.60
2023-12-22T04:43:12.446Z,23.60
2023-12-22T04:44:12.445Z,23.60
2023-12-22T04:45:12.421Z,23.60
2023-12-22T04:46:12.432Z,23.60
2023-12-22T04:47:12.447Z,23.60
2023-12-22T04:48:12.511Z,23.59
2023-12-22T04:49:12.556Z,23.63
2023-12-22T04:50:12.525Z,23.60
2023-12-22T04:51:12.429Z,23.59
2023-12-22T04:52:12.463Z,23.59
2023-12-22T04:53:12.523Z,23.59
2023-12-22T04:54:12.454Z,23.59
2023-12-22T04:55:12.602Z,23.58
2023-12-22T04:56:12.491Z,23.58
2023-12-22T04:57:13.605Z,23.58
2023-12-22T04:58:12.486Z,23.58
2023-12-22T04:59:12.465Z,23.57
2023-12-22T05:00:12.530Z,23.57
2023-12-22T05:01:12.525Z,23.57
2023-12-22T05:02:12.520Z,23.57
2023-12-22T05:03:12.586Z,23.57
2023-12-22T05:04:12.633Z,23.57
2023-12-22T05:05:12.630Z,23.58
2023-12-22T05:06:12.934Z,23.57
2023-12-22T05:07:12.896Z,23.57
2023-12-22T05:08:12.908Z,23.57
2023-12-22T05:09:12.868Z,23.57
2023-12-22T05:10:12.840Z,23.57
2023-12-22T05:11:12.901Z,23.57
2023-12-22T05:12:12.926Z,23.56
2023-12-22T05:13:12.996Z,23.56
2023-12-22T05:14:13.086Z,23.56
2023-12-22T05:15:13.102Z,23.56
2023-12-22T05:16:13.087Z,23.56
2023-12-22T05:17:13.125Z,23.56
2023-12-22T05:18:13.260Z,23.56
2023-12-22T05:19:13.244Z,23.55
2023-12-22T05:20:13.632Z,23.56
2023-12-22T05:21:13.391Z,23.55
2023-12-22T05:22:13.413Z,23.55
2023-12-22T05:23:13.505Z,23.55
2023-12-22T05:24:13.483Z,23.55
2023-12-22T05:25:13.503Z,23.54
2023-12-22T05:26:13.590Z,23.55
2023-12-22T05:27:13.531Z,23.55
2023-12-22T05:28:13.585Z,23.55
2023-12-22T05:29:13.634Z,23.55
2023-12-22T05:30:13.628Z,23.56
2023-12-22T05:31:13.635Z,23.55
2023-12-22T05:32:13.648Z,23.55
2023-12-22T05:33:13.691Z,23.55
2023-12-22T05:34:14.602Z,23.55
2023-12-22T05:35:13.939Z,23.55
2023-12-22T05:36:13.761Z,23.55
2023-12-22T05:37:13.773Z,23.55
2023-12-22T05:38:13.791Z,23.55
2023-12-22T05:39:13.854Z,23.54
2023-12-22T05:40:13.883Z,23.54
2023-12-22T05:41:13.845Z,23.54
2023-12-22T05:42:13.892Z,23.53
2023-12-22T05:43:13.907Z,23.53
2023-12-22T05:44:13.934Z,23.54
2023-12-22T05:45:13.938Z,23.53
2023-12-22T05:46:13.959Z,23.54
2023-12-22T05:47:14.025Z,23.54
2023-12-22T05:48:14.127Z,23.54
2023-12-22T05:49:14.190Z,23.54
2023-12-22T05:50:14.360Z,23.54
2023-12-22T05:51:14.067Z,23.54
2023-12-22T05:52:14.099Z,23.54
2023-12-22T05:53:14.086Z,23.53
2023-12-22T05:54:14.168Z,23.53
2023-12-22T05:55:14.155Z,23.53
2023-12-22T05:56:14.168Z,23.52
2023-12-22T05:57:14.193Z,23.53
2023-12-22T05:58:14.235Z,23.52
2023-12-22T05:59:14.261Z,23.52
2023-12-22T06:00:14.277Z,23.53
2023-12-22T06:01:14.310Z,23.51
2023-12-22T06:02:14.338Z,23.52
2023-12-22T06:03:14.388Z,23.53
2023-12-22T06:04:14.378Z,23.52
2023-12-22T06:05:14.502Z,23.53
2023-12-22T06:06:14.459Z,23.53
2023-12-22T06:07:14.479Z,23.53
2023-12-22T06:08:14.457Z,23.53
2023-12-22T06:09:14.479Z,23.53
2023-12-22T06:10:14.524Z,23.53
2023-12-22T06:11:14.545Z,23.52
2023-12-22T06:12:14.619Z,23.53
2023-12-22T06:13:14.584Z,23.52
2023-12-22T06:14:14.620Z,23.52
2023-12-22T06:15:14.655Z,23.53
2023-12-22T06:16:14.651Z,23.57
2023-12-22T06:17:14.691Z,23.53
2023-12-22T06:18:14.792Z,23.53
2023-12-22T06:19:14.792Z,23.53
2023-12-22T06:20:15.082Z,23.52
2023-12-22T06:21:14.730Z,23.52
2023-12-22T06:22:14.794Z,23.52
2023-12-22T06:23:14.790Z,23.51
2023-12-22T06:24:14.802Z,23.52
2023-12-22T06:25:14.780Z,23.51
2023-12-22T06:26:14.824Z,23.52
2023-12-22T06:27:14.791Z,23.52
2023-12-22T06:28:14.820Z,23.52
2023-12-22T06:29:14.797Z,23.52
2023-12-22T06:30:14.844Z,23.52
2023-12-22T06:31:14.867Z,23.52
2023-12-22T06:32:14.863Z,23.52
2023-12-22T06:33:14.945Z,23.52
2023-12-22T06:34:14.869Z,23.51
2023-12-22T06:35:17.820Z,23.51
2023-12-22T06:36:14.896Z,23.53
2023-12-22T06:37:14.893Z,23.52
2023-12-22T06:38:14.876Z,23.52
2023-12-22T06:39:14.887Z,23.52
2023-12-22T06:40:14.912Z,23.52
2023-12-22T06:41:14.870Z,23.53
2023-12-22T06:42:14.904Z,23.53
2023-12-22T06:43:14.918Z,23.53
2023-12-22T06:44:14.889Z,23.53
2023-12-22T06:45:15.135Z,23.54
2023-12-22T06:46:14.878Z,23.54
2023-12-22T06:47:15.053Z,23.53
2023-12-22T06:48:15.089Z,23.53
2023-12-22T06:49:14.926Z,23.52
2023-12-22T06:50:15.069Z,23.55
2023-12-22T06:51:14.915Z,23.51
2023-12-22T06:52:14.933Z,23.54
2023-12-22T06:53:24.976Z,23.56
2023-12-22T06:54:17.579Z,23.53
2023-12-22T06:55:14.953Z,23.53
2023-12-22T06:56:14.929Z,23.52
2023-12-22T06:57:15.963Z,23.53
2023-12-22T06:58:14.943Z,23.56
2023-12-22T06:59:16.416Z,23.74
2023-12-22T07:00:14.966Z,23.98
2023-12-22T07:01:14.948Z,24.09
2023-12-22T07:02:20.036Z,24.11
2023-12-22T07:03:16.116Z,24.08
2023-12-22T07:04:14.982Z,24.05
2023-12-22T07:05:15.103Z,23.98
2023-12-22T07:06:14.949Z,23.97
2023-12-22T07:07:14.954Z,23.95
2023-12-22T07:08:14.996Z,23.93
2023-12-22T07:09:14.983Z,23.91
2023-12-22T07:10:14.972Z,23.93
2023-12-22T07:11:15.885Z,23.96
2023-12-22T07:12:15.048Z,24.01
2023-12-22T07:13:14.974Z,24.09
2023-12-22T07:14:15.051Z,24.11
2023-12-22T07:15:15.130Z,24.11
2023-12-22T07:16:14.986Z,24.12
2023-12-22T07:17:14.994Z,24.15
2023-12-22T07:18:15.090Z,24.15
2023-12-22T07:19:15.035Z,24.15
2023-12-22T07:20:15.122Z,24.09
2023-12-22T07:21:15.128Z,24.08
2023-12-22T07:22:15.153Z,24.02
2023-12-22T07:23:15.290Z,24.00
2023-12-22T07:24:16.447Z,23.99
2023-12-22T07:25:15.485Z,23.97
2023-12-22T07:26:15.322Z,23.96
2023-12-22T07:27:15.274Z,23.94
2023-12-22T07:28:15.304Z,23.89
2023-12-22T07:29:15.396Z,23.86
2023-12-22T07:30:15.347Z,23.87
2023-12-22T07:31:15.584Z,23.86
2023-12-22T07:32:16.058Z,23.87
2023-12-22T07:33:15.487Z,23.88
2023-12-22T07:34:15.431Z,23.84
2023-12-22T07:35:16.265Z,23.89
2023-12-22T07:36:15.440Z,23.93
2023-12-22T07:37:15.501Z,23.96
2023-12-22T07:38:15.592Z,23.95
2023-12-22T07:39:16.723Z,23.85
2023-12-22T07:40:17.254Z,23.84
2023-12-22T07:41:16.599Z,23.83
2023-12-22T07:42:15.911Z,23.72
2023-12-22T07:43:15.672Z,23.74
2023-12-22T07:44:16.657Z,23.78
2023-12-22T07:45:15.764Z,24.24
2023-12-22T07:46:15.791Z,24.25
2023-12-22T07:47:16.306Z,24.07
2023-12-22T07:48:15.919Z,23.88
2023-12-22T07:49:16.978Z,23.65
2023-12-22T07:50:16.762Z,23.42
2023-12-22T07:51:15.987Z,22.93
2023-12-22T07:52:16.201Z,22.66
2023-12-22T07:53:16.144Z,22.66
2023-12-22T07:54:16.188Z,22.70
2023-12-22T07:55:16.158Z,22.66
2023-12-22T07:56:16.372Z,22.46
2023-12-22T07:57:16.230Z,22.41
2023-12-22T07:58:16.301Z,22.23
2023-12-22T07:59:26.472Z,22.20
2023-12-22T08:00:17.380Z,22.23
2023-12-22T08:01:16.383Z,22.26
2023-12-22T08:02:16.382Z,22.30
2023-12-22T08:03:16.375Z,22.44
2023-12-22T08:04:16.335Z,22.52
2023-12-22T08:05:16.335Z,22.59
2023-12-22T08:06:16.462Z,22.66
2023-12-22T08:07:16.446Z,22.71
2023-12-22T08:08:16.320Z,22.77
2023-12-22T08:09:16.319Z,22.82
2023-12-22T08:10:16.370Z,22.87
2023-12-22T08:11:16.382Z,22.91
2023-12-22T08:12:16.341Z,22.96
2023-12-22T08:13:16.422Z,22.99
2023-12-22T08:14:16.370Z,23.03
2023-12-22T08:15:25.203Z,23.06
2023-12-22T08:16:17.410Z,23.09
2023-12-22T08:17:16.441Z,23.12
2023-12-22T08:18:16.562Z,23.14
2023-12-22T08:19:16.698Z,23.16
2023-12-22T08:20:21.286Z,23.18
2023-12-22T08:21:25.114Z,23.19
2023-12-22T08:22:18.027Z,23.20
2023-12-22T08:23:17.079Z,23.21
2023-12-22T08:24:21.312Z,23.23
2023-12-22T08:25:17.557Z,23.24
2023-12-22T08:26:16.538Z,23.25
2023-12-22T08:27:16.439Z,23.25
2023-12-22T08:28:16.478Z,23.27
2023-12-22T08:29:16.458Z,23.27
2023-12-22T08:30:16.643Z,23.28
2023-12-22T08:31:16.435Z,23.29
2023-12-22T08:32:16.489Z,23.30
2023-12-22T08:33:16.542Z,23.30
2023-12-22T08:34:16.498Z,23.32
2023-12-22T08:35:16.551Z,23.31
2023-12-22T08:36:16.839Z,23.32
2023-12-22T08:37:16.515Z,23.32
2023-12-22T08:38:16.571Z,23.33
2023-12-22T08:39:16.674Z,23.34
2023-12-22T08:40:16.569Z,23.34
2023-12-22T08:41:16.522Z,23.34
2023-12-22T08:42:16.491Z,23.34
2023-12-22T08:43:16.479Z,23.34
2023-12-22T08:44:16.573Z,23.35
2023-12-22T08:45:16.610Z,23.35
2023-12-22T08:46:16.503Z,23.35
2023-12-22T08:47:16.484Z,23.36
2023-12-22T08:48:16.539Z,23.49
2023-12-22T08:49:16.647Z,23.52
2023-12-22T08:50:16.649Z,23.50
2023-12-22T08:51:16.494Z,23.54
2023-12-22T08:52:16.514Z,23.62
2023-12-22T08:53:16.572Z,23.69
2023-12-22T08:54:16.584Z,23.75
2023-12-22T08:55:16.704Z,23.90
2023-12-22T08:56:16.702Z,23.94
2023-12-22T08:57:16.753Z,23.97
2023-12-22T08:58:16.821Z,24.01
2023-12-22T08:59:16.880Z,24.06
2023-12-22T09:00:16.991Z,24.16
2023-12-22T09:01:17.155Z,24.18
2023-12-22T09:02:17.122Z,24.20
2023-12-22T09:03:17.176Z,24.21
2023-12-22T09:04:17.192Z,24.22
2023-12-22T09:05:17.741Z,24.26
2023-12-22T09:06:17.290Z,24.28
2023-12-22T09:07:17.400Z,24.30
2023-12-22T09:08:17.476Z,24.33
2023-12-22T09:09:17.458Z,24.37
2023-12-22T09:10:17.665Z,24.40
2023-12-22T09:11:17.601Z,24.43
2023-12-22T09:12:17.632Z,24.45
2023-12-22T09:13:17.704Z,24.47
2023-12-22T09:14:17.747Z,24.54
2023-12-22T09:15:17.794Z,24.58
2023-12-22T09:16:17.863Z,24.64
2023-12-22T09:17:17.914Z,24.67
2023-12-22T09:18:18.036Z,24.70
2023-12-22T09:19:18.013Z,24.71
2023-12-22T09:20:18.247Z,24.77
2023-12-22T09:21:18.038Z,24.81
2023-12-22T09:22:18.087Z,24.84
2023-12-22T09:23:18.101Z,24.86
2023-12-22T09:24:18.115Z,24.88
2023-12-22T09:25:18.217Z,24.93
2023-12-22T09:26:18.249Z,25.20
2023-12-22T09:27:18.311Z,25.24
2023-12-22T09:28:18.348Z,25.23
2023-12-22T09:29:18.337Z,25.22
2023-12-22T09:30:18.390Z,25.20
2023-12-22T09:31:18.387Z,25.19
2023-12-22T09:32:18.452Z,25.16
2023-12-22T09:33:18.594Z,25.20
2023-12-22T09:34:18.636Z,25.19
2023-12-22T09:35:18.652Z,25.28
2023-12-22T09:36:18.445Z,25.27
2023-12-22T09:37:18.524Z,25.24
2023-12-22T09:38:18.619Z,25.22
2023-12-22T09:39:18.608Z,25.23
2023-12-22T09:40:18.652Z,25.22
2023-12-22T09:41:18.610Z,25.30
2023-12-22T09:42:18.726Z,25.25
2023-12-22T09:43:18.795Z,25.23
2023-12-22T09:44:18.825Z,25.22
2023-12-22T09:45:19.194Z,25.19
2023-12-22T09:46:18.896Z,25.17
2023-12-22T09:47:18.980Z,25.20
2023-12-22T09:48:19.117Z,25.20
2023-12-22T09:49:19.207Z,25.19
2023-12-22T09:50:19.286Z,25.14
2023-12-22T09:51:19.284Z,25.14
2023-12-22T09:52:19.283Z,25.08
2023-12-22T09:53:19.289Z,25.06
2023-12-22T09:54:19.398Z,25.04
2023-12-22T09:55:19.796Z,25.03
2023-12-22T09:56:19.488Z,25.03
2023-12-22T09:57:26.060Z,25.03
2023-12-22T09:58:20.589Z,24.72
2023-12-22T09:59:19.673Z,23.44
2023-12-22T10:00:19.686Z,22.80
2023-12-22T10:01:19.590Z,22.80
2023-12-22T10:02:19.590Z,22.51
2023-12-22T10:03:19.505Z,22.06
2023-12-22T10:04:19.597Z,21.76
2023-12-22T10:05:19.812Z,21.83
2023-12-22T10:06:19.608Z,22.04
2023-12-22T10:07:19.544Z,22.27
2023-12-22T10:08:19.612Z,22.52
2023-12-22T10:09:19.530Z,22.74
2023-12-22T10:10:19.709Z,22.93
2023-12-22T10:11:19.543Z,23.09
2023-12-22T10:12:19.556Z,23.23
2023-12-22T10:13:19.601Z,23.35
2023-12-22T10:14:19.652Z,23.46
2023-12-22T10:15:20.162Z,23.55
2023-12-22T10:16:19.723Z,23.63
2023-12-22T10:17:19.801Z,23.69
2023-12-22T10:18:19.861Z,23.74
2023-12-22T10:19:19.851Z,23.79
2023-12-22T10:20:19.944Z,23.81
2023-12-22T10:21:19.885Z,23.87
2023-12-22T10:22:19.901Z,23.95
2023-12-22T10:23:19.998Z,24.02
2023-12-22T10:24:20.001Z,24.09
2023-12-22T10:25:20.091Z,24.15
2023-12-22T10:26:20.105Z,24.20
2023-12-22T10:27:20.069Z,24.22
2023-12-22T10:28:20.075Z,24.22
2023-12-22T10:29:20.048Z,24.27
2023-12-22T10:30:20.125Z,24.28
2023-12-22T10:31:20.198Z,24.35
2023-12-22T10:32:20.245Z,24.35
2023-12-22T10:33:20.447Z,24.35
2023-12-22T10:34:20.379Z,24.35
2023-12-22T10:35:20.432Z,24.36
2023-12-22T10:36:20.484Z,24.44
2023-12-22T10:37:20.538Z,24.09
2023-12-22T10:38:20.621Z,23.48
2023-12-22T10:39:20.659Z,22.92
2023-12-22T10:40:20.666Z,22.71
2023-12-22T10:41:20.716Z,22.64
2023-12-22T10:42:20.718Z,22.67
2023-12-22T10:43:20.857Z,22.74
2023-12-22T10:44:20.815Z,22.82
2023-12-22T10:45:20.891Z,23.00
2023-12-22T10:46:20.900Z,23.11
2023-12-22T10:47:20.968Z,23.29
2023-12-22T10:48:21.083Z,23.41
2023-12-22T10:49:20.992Z,23.46
2023-12-22T10:50:21.173Z,23.51
2023-12-22T10:51:21.127Z,23.56
2023-12-22T10:52:21.209Z,23.63
2023-12-22T10:53:21.241Z,23.69
2023-12-22T10:54:21.266Z,23.75
2023-12-22T10:55:21.675Z,23.81
2023-12-22T10:56:21.335Z,23.88
2023-12-22T10:57:21.346Z,23.94
2023-12-22T10:58:21.381Z,24.01
2023-12-22T10:59:21.397Z,24.07
2023-12-22T11:00:21.519Z,24.13
2023-12-22T11:01:21.488Z,24.17
2023-12-22T11:02:21.531Z,24.06
2023-12-22T11:03:21.501Z,23.82
2023-12-22T11:04:21.616Z,23.55
2023-12-22T11:05:21.543Z,23.34
2023-12-22T11:06:21.618Z,23.25
2023-12-22T11:07:21.659Z,23.28
2023-12-22T11:08:21.929Z,23.35
2023-12-22T11:09:21.785Z,23.44
2023-12-22T11:10:21.839Z,23.53
2023-12-22T11:11:21.883Z,23.64
2023-12-22T11:12:21.864Z,23.74
2023-12-22T11:13:21.882Z,23.85
2023-12-22T11:14:21.921Z,23.91
2023-12-22T11:15:21.878Z,24.00
2023-12-22T11:16:22.060Z,24.08
2023-12-22T11:17:21.896Z,24.16
2023-12-22T11:18:22.057Z,24.23
2023-12-22T11:19:22.046Z,24.29
2023-12-22T11:20:22.154Z,24.35
2023-12-22T11:21:22.029Z,24.40
2023-12-22T11:22:22.085Z,24.46
2023-12-22T11:23:22.142Z,24.50
2023-12-22T11:24:22.201Z,24.56
2023-12-22T11:25:22.295Z,24.46
2023-12-22T11:26:22.244Z,24.27
2023-12-22T11:27:22.286Z,24.06
2023-12-22T11:28:22.331Z,23.91
2023-12-22T11:29:22.333Z,23.78
2023-12-22T11:30:22.348Z,23.78
2023-12-22T11:31:22.511Z,23.72
2023-12-22T11:32:22.473Z,23.72
2023-12-22T11:33:22.596Z,23.69
2023-12-22T11:34:22.644Z,23.63
2023-12-22T11:35:22.582Z,23.59
2023-12-22T11:36:23.539Z,23.56
2023-12-22T11:37:22.559Z,23.61
2023-12-22T11:38:22.598Z,23.63
2023-12-22T11:39:22.534Z,23.60
2023-12-22T11:40:22.840Z,23.69
2023-12-22T11:41:27.454Z,23.77
2023-12-22T11:42:27.486Z,23.75
2023-12-22T11:43:27.461Z,23.74
2023-12-22T11:44:27.481Z,23.73
2023-12-22T11:45:27.428Z,23.72
2023-12-22T11:46:27.497Z,23.72
2023-12-22T11:47:27.491Z,23.73
2023-12-22T11:48:27.554Z,23.75
2023-12-22T11:49:27.541Z,23.77
2023-12-22T11:50:27.491Z,23.79
2023-12-22T11:51:27.506Z,23.80
2023-12-22T11:52:27.553Z,23.81
2023-12-22T11:53:27.476Z,23.80
2023-12-22T11:54:27.507Z,23.80
2023-12-22T11:55:27.519Z,23.81
2023-12-22T11:56:27.532Z,23.81
2023-12-22T11:57:27.442Z,23.81
2023-12-22T11:58:27.497Z,23.81
2023-12-22T11:59:27.467Z,23.82
2023-12-22T12:00:27.469Z,23.82
2023-12-22T12:01:27.578Z,23.83
2023-12-22T12:02:27.663Z,23.83
2023-12-22T12:03:27.494Z,23.83
2023-12-22T12:04:27.562Z,23.84
2023-12-22T12:05:27.660Z,23.82
2023-12-22T12:06:27.585Z,23.83
2023-12-22T12:07:27.511Z,23.82
2023-12-22T12:08:27.519Z,23.82
2023-12-22T12:09:27.494Z,23.83
2023-12-22T12:10:27.518Z,23.82
2023-12-22T12:11:27.509Z,23.81
2023-12-22T12:12:27.512Z,23.81
2023-12-22T12:13:27.603Z,23.81
2023-12-22T12:14:27.589Z,23.81
2023-12-22T12:15:27.610Z,23.81
2023-12-22T12:16:27.499Z,23.80
2023-12-22T12:17:27.704Z,23.80
2023-12-22T12:18:27.566Z,23.79
2023-12-22T12:19:27.656Z,23.79
2023-12-22T12:20:27.753Z,23.79
2023-12-22T12:21:27.792Z,23.78
2023-12-22T12:22:27.855Z,23.78
2023-12-22T12:23:27.901Z,23.78
2023-12-22T12:24:28.033Z,23.77
2023-12-22T12:25:32.691Z,23.76
2023-12-22T12:26:29.136Z,23.76
2023-12-22T12:27:28.027Z,23.77
2023-12-22T12:28:28.065Z,23.76
2023-12-22T12:29:28.053Z,23.77
2023-12-22T12:30:28.054Z,23.76
2023-12-22T12:31:28.085Z,23.76
2023-12-22T12:32:28.242Z,23.75
2023-12-22T12:33:28.192Z,23.76
2023-12-22T12:34:28.127Z,23.74
2023-12-22T12:35:28.207Z,23.74
2023-12-22T12:36:28.417Z,23.75
2023-12-22T12:37:28.266Z,23.73
2023-12-22T12:38:28.266Z,23.73
2023-12-22T12:39:28.317Z,23.73
2023-12-22T12:40:28.659Z,23.73
2023-12-22T12:41:28.450Z,23.73
2023-12-22T12:42:28.518Z,23.72
2023-12-22T12:43:28.798Z,23.71
2023-12-22T12:44:28.667Z,23.71
2023-12-22T12:45:28.903Z,23.70
2023-12-22T12:46:28.878Z,23.70
2023-12-22T12:47:29.071Z,23.69
2023-12-22T12:48:28.984Z,23.68
2023-12-22T12:49:29.359Z,23.68
2023-12-22T12:50:29.076Z,23.68
2023-12-22T12:51:29.141Z,23.68
2023-12-22T12:52:29.159Z,23.68
2023-12-22T12:53:29.196Z,23.68